Airport Name : Murmansk

Other Name : Murmansk

ICAO : ULMM

IATA : MMK

FAA :

Latitude : 68.781672

Longitude : 32.750822

Country : Russia

Local Date and Time : 22 Oct 2020 20:45

 

TAF (Terminal Aerodrome Forecast)

TAF ULMM 221650Z 2218/2318 11003G08MPS 3100 -SHSN BKN011CB TEMPO 2218/2309 15006G12MPS 1000 SHSN BLSN BKN006 BKN011CB BECMG 2309/2310 6000 -SHSN BKN016CB TEMPO 2310/2317 15006G12MPS 2100 -SHSN BLSN BKN006 BKN016CB

 

METAR (METeorological Aerodrome Report)

ULMM 221730Z 06001MPS 9999 -SHSN SCT020CB M03/M03 Q1004 R13/490055 NOSIG RMK QFE746

ULMM 221700Z 12001MPS 9000 -SHSN SCT020CB M03/M03 Q1004 R13/490055 NOSIG RMK QFE747

ULMM 221630Z 13002MPS 9999 -SHSN SCT020CB M03/M04 Q1005 R13/490055 NOSIG RMK QFE747

ULMM 221600Z 14002MPS 9999 -SHSN SCT020CB M03/M04 Q1005 R13/490055 NOSIG RMK QFE747

ULMM 221530Z 13002MPS 9999 -SHSN SCT020CB M03/M04 Q1005 R13/490055 NOSIG RMK QFE747

ULMM 221500Z 13002MPS 9999 -SHSN SCT020CB M03/M04 Q1006 R13/690055 NOSIG RMK QFE748

ULMM 221430Z 07001MPS 9999 SCT009 M04/M04 Q1006 R13/690055 NOSIG RMK OBST OBSC QFE748

ULMM 221400Z 07002MPS 9999 SCT009 M04/M04 Q1007 R13/690055 NOSIG RMK OBST OBSC QFE748

To Charter a Jet Click here.